Time;durP1;ratioP1;P1;durP2;ratioP2;P2;SDS_P1;SDS_P2;PMS_P1;PMS_P2;Temp;Humidity;BMP_temperature;BMP_pressure;BME280_temperature;BME280_humidity;BME280_pressure;Samples;Min_cycle;Max_cycle;Signal;HPM_P1;HPM_P2
2022/12/28 00:01:14;;;;;;;1.70;1.70;;;17.50;64.30;;;;;;5086886;28;43762;-69
2022/12/28 00:03:42;;;;;;;1.50;1.50;;;17.50;64.50;;;;;;5087340;28;43550;-71
2022/12/28 00:06:11;;;;;;;1.50;1.50;;;17.40;64.60;;;;;;5086986;28;43979;-71
2022/12/28 00:08:42;;;;;;;1.63;1.63;;;17.40;64.50;;;;;;5066950;28;44957;-69
2022/12/28 00:11:13;;;;;;;1.60;1.60;;;17.40;64.60;;;;;;5086414;28;43463;-70
2022/12/28 00:13:53;;;;;;;1.50;1.50;;;17.40;64.70;;;;;;5087447;28;43390;-72
2022/12/28 00:16:24;;;;;;;1.60;1.60;;;17.40;64.90;;;;;;5086193;28;43942;-70
2022/12/28 00:18:52;;;;;;;1.63;1.53;;;17.30;64.90;;;;;;5085184;28;43467;-71
2022/12/28 00:21:20;;;;;;;1.77;1.77;;;17.30;65.10;;;;;;5086772;28;43539;-70
2022/12/28 00:23:50;;;;;;;1.60;1.60;;;17.30;64.90;;;;;;5068498;28;43618;-70
2022/12/28 00:26:19;;;;;;;1.60;1.60;;;17.30;65.10;;;;;;5086417;28;43915;-70
2022/12/28 00:28:47;;;;;;;1.40;1.40;;;17.30;65.20;;;;;;5067826;28;44996;-70
2022/12/28 00:31:15;;;;;;;1.30;1.30;;;17.20;65.10;;;;;;5067282;28;43388;-70
2022/12/28 00:33:45;;;;;;;1.40;1.40;;;17.30;65.20;;;;;;5087131;28;43702;-71
2022/12/28 00:36:14;;;;;;;1.50;1.50;;;17.20;65.30;;;;;;5084060;28;43657;-70
2022/12/28 00:38:42;;;;;;;1.40;1.40;;;17.30;66.00;;;;;;5086009;28;43534;-71
2022/12/28 00:41:12;;;;;;;1.67;1.67;;;17.40;64.80;;;;;;5080123;28;43457;-72
2022/12/28 00:43:45;;;;;;;1.63;1.63;;;17.40;64.40;;;;;;5086784;28;43511;-72
2022/12/28 00:46:12;;;;;;;1.63;1.60;;;17.40;64.40;;;;;;5086416;28;43935;-71
2022/12/28 00:48:41;;;;;;;1.67;1.67;;;17.40;64.60;;;;;;5086271;28;43464;-71
2022/12/28 00:51:13;;;;;;;1.57;1.57;;;17.40;64.70;;;;;;5080505;28;43390;-70
2022/12/28 00:53:42;;;;;;;1.50;1.50;;;17.40;64.60;;;;;;5086397;28;43434;-70
2022/12/28 00:56:10;;;;;;;1.50;1.50;;;17.40;64.80;;;;;;5086258;28;43934;-71
2022/12/28 00:58:39;;;;;;;1.30;1.30;;;17.30;64.80;;;;;;5067364;28;44823;-70
2022/12/28 01:01:12;;;;;;;1.57;1.57;;;17.30;64.90;;;;;;5067797;28;43425;-71
2022/12/28 01:03:40;;;;;;;1.60;1.60;;;17.30;65.00;;;;;;5068003;28;43795;-70
2022/12/28 01:06:08;;;;;;;1.60;1.60;;;17.20;65.00;;;;;;5085516;28;43854;-71
2022/12/28 01:08:36;;;;;;;1.30;1.30;;;17.20;65.10;;;;;;5086174;28;43951;-70
2022/12/28 01:11:07;;;;;;;1.30;1.30;;;17.20;65.00;;;;;;5067328;28;43421;-71
2022/12/28 01:13:35;;;;;;;1.40;1.40;;;17.20;65.10;;;;;;5086302;28;43483;-71
2022/12/28 01:16:11;;;;;;;1.47;1.40;;;17.20;65.10;;;;;;5085291;28;43837;-69
2022/12/28 01:18:41;;;;;;;1.50;1.50;;;17.20;65.20;;;;;;5079932;28;43517;-70
2022/12/28 01:21:10;;;;;;;1.50;1.50;;;17.20;65.30;;;;;;5085624;28;43432;-69
2022/12/28 01:23:44;;;;;;;1.57;1.57;;;17.20;65.30;;;;;;5086472;28;43461;-71
2022/12/28 01:26:12;;;;;;;1.60;1.60;;;17.30;65.10;;;;;;5066959;28;45682;-69
2022/12/28 01:28:40;;;;;;;1.70;1.70;;;17.40;64.60;;;;;;5085643;28;43438;-71
2022/12/28 01:31:09;;;;;;;1.60;1.60;;;17.40;64.30;;;;;;5064780;28;43738;-71
2022/12/28 01:33:41;;;;;;;1.20;1.20;;;17.40;64.40;;;;;;5066580;28;44014;-70
2022/12/28 01:36:11;;;;;;;1.50;1.50;;;17.40;64.60;;;;;;5066772;28;46173;-72
2022/12/28 01:38:39;;;;;;;1.37;1.37;;;17.40;64.70;;;;;;5085611;28;43533;-71
2022/12/28 01:41:08;;;;;;;1.60;1.60;;;17.40;64.60;;;;;;5085232;28;43425;-70
2022/12/28 01:43:41;;;;;;;1.63;1.63;;;17.40;64.80;;;;;;5068907;28;44080;-72
2022/12/28 01:46:09;;;;;;;1.50;1.50;;;17.30;64.70;;;;;;5068095;28;45852;-72
2022/12/28 01:48:40;;;;;;;1.33;1.33;;;17.30;64.80;;;;;;5088927;28;43518;-70
2022/12/28 01:51:08;;;;;;;1.70;1.70;;;17.30;65.10;;;;;;5070536;28;43456;-71
2022/12/28 01:53:36;;;;;;;1.70;1.70;;;17.20;65.10;;;;;;5089065;28;43573;-72
2022/12/28 01:56:05;;;;;;;1.50;1.50;;;17.20;65.00;;;;;;5088890;28;43556;-70
2022/12/28 01:58:33;;;;;;;1.40;1.40;;;17.20;65.10;;;;;;5070177;28;44743;-71
2022/12/28 02:01:01;;;;;;;1.43;1.43;;;17.20;65.10;;;;;;5070773;28;44018;-77
2022/12/28 02:03:29;;;;;;;1.40;1.40;;;17.20;65.10;;;;;;5088561;28;44019;-77
2022/12/28 02:06:00;;;;;;;1.50;1.50;;;17.20;65.20;;;;;;5088823;28;44501;-74
2022/12/28 02:08:29;;;;;;;1.53;1.53;;;17.20;65.30;;;;;;5088748;28;43396;-77
2022/12/28 02:10:59;;;;;;;1.53;1.53;;;17.20;65.20;;;;;;5070132;28;44030;-76
2022/12/28 02:13:28;;;;;;;1.40;1.40;;;17.30;64.90;;;;;;5069531;28;43538;-77
2022/12/28 02:15:57;;;;;;;1.43;1.43;;;17.40;64.50;;;;;;5065193;28;45549;-77
2022/12/28 02:18:43;;;;;;;1.63;1.63;;;17.40;64.30;;;;;;5068743;28;44668;-75
2022/12/28 02:22:10;;;;;;;1.40;1.40;;;17.40;64.60;;;;;;5069365;28;43893;-77
2022/12/28 02:25:18;;;;;;;1.50;1.50;;;17.40;64.70;;;;;;5066605;28;43393;-77
2022/12/28 02:28:10;;;;;;;1.50;1.50;;;17.30;64.60;;;;;;5068105;28;45899;-77
2022/12/28 02:30:43;;;;;;;1.40;1.40;;;17.30;64.80;;;;;;5088539;28;43467;-75
2022/12/28 02:33:14;;;;;;;1.30;1.30;;;17.30;64.90;;;;;;5088231;28;43963;-76
2022/12/28 02:35:45;;;;;;;1.50;1.50;;;17.30;65.00;;;;;;5085392;28;44011;-72
2022/12/28 02:38:16;;;;;;;1.50;1.40;;;17.20;65.10;;;;;;5069722;28;45733;-75
2022/12/28 02:40:46;;;;;;;1.50;1.50;;;17.20;65.10;;;;;;5081596;28;43352;-76
2022/12/28 02:43:14;;;;;;;1.43;1.43;;;17.20;65.00;;;;;;5068930;28;43490;-78
2022/12/28 02:51:40;;;;;;;1.60;1.60;;;17.20;65.20;;;;;;5088269;28;43494;-73
2022/12/28 02:57:32;;;;;;;1.73;1.73;;;17.20;65.40;;;;;;5069914;28;43451;-76
2022/12/28 03:00:03;;;;;;;1.40;1.40;;;17.30;65.00;;;;;;5087613;28;43668;-75
2022/12/28 03:02:56;;;;;;;1.50;1.50;;;17.40;64.60;;;;;;5063128;28;44907;-75
2022/12/28 03:08:34;;;;;;;1.47;1.47;;;17.40;64.70;;;;;;5086504;28;43423;-77
2022/12/28 03:11:04;;;;;;;1.80;1.80;;;17.30;64.70;;;;;;5080571;28;43616;-77
2022/12/28 03:13:43;;;;;;;1.40;1.40;;;17.30;64.60;;;;;;5087894;28;43449;-76
2022/12/28 03:16:18;;;;;;;1.33;1.33;;;17.30;64.80;;;;;;5087553;28;43930;-75
2022/12/28 03:32:46;;;;;;;1.40;1.40;;;17.20;65.20;;;;;;5087244;28;44043;-76
2022/12/28 03:35:16;;;;;;;1.27;1.27;;;17.20;65.20;;;;;;5068814;28;43597;-73
2022/12/28 03:37:48;;;;;;;1.47;1.47;;;17.20;65.30;;;;;;5068716;28;43475;-77
2022/12/28 03:40:22;;;;;;;1.50;1.50;;;17.10;65.30;;;;;;5065342;28;43583;-75
2022/12/28 03:45:49;;;;;;;1.70;1.70;;;17.20;65.30;;;;;;5068388;28;43509;-76
2022/12/28 03:48:20;;;;;;;1.50;1.50;;;17.30;64.80;;;;;;5063950;28;43644;-75
2022/12/28 03:50:52;;;;;;;1.50;1.50;;;17.40;64.30;;;;;;5063942;28;43673;-77
2022/12/28 03:53:22;;;;;;;1.40;1.40;;;17.40;64.30;;;;;;5063637;28;45566;-77
2022/12/28 03:56:05;;;;;;;1.30;1.30;;;17.40;64.50;;;;;;5068368;28;44799;-77
2022/12/28 03:58:34;;;;;;;1.50;1.50;;;17.30;64.50;;;;;;5066450;28;43948;-77
2022/12/28 04:01:06;;;;;;;1.40;1.40;;;17.30;64.50;;;;;;5068719;28;43391;-76
2022/12/28 04:03:34;;;;;;;1.30;1.30;;;17.30;64.70;;;;;;5067827;28;44064;-76
2022/12/28 04:06:04;;;;;;;1.30;1.30;;;17.30;64.80;;;;;;5065505;28;43431;-74
2022/12/28 04:08:32;;;;;;;1.30;1.30;;;17.20;64.90;;;;;;5067738;28;43558;-77
2022/12/28 04:11:02;;;;;;;1.50;1.50;;;17.20;65.00;;;;;;5068520;28;43438;-76
2022/12/28 04:13:30;;;;;;;1.50;1.50;;;17.20;65.10;;;;;;5068116;28;45964;-76
2022/12/28 04:16:12;;;;;;;1.50;1.40;;;17.20;65.10;;;;;;5068053;28;44809;-78
2022/12/28 04:18:41;;;;;;;1.20;1.20;;;17.20;65.10;;;;;;5067538;28;43515;-76
2022/12/28 04:21:52;;;;;;;1.50;1.50;;;17.20;65.20;;;;;;5084260;28;43475;-77
2022/12/28 04:24:35;;;;;;;1.30;1.30;;;17.10;65.20;;;;;;5061530;28;44068;-76
2022/12/28 04:27:04;;;;;;;1.30;1.30;;;17.10;66.00;;;;;;5067776;28;43412;-77
2022/12/28 04:29:32;;;;;;;1.60;1.60;;;17.10;65.30;;;;;;5086564;28;43475;-76
2022/12/28 04:32:06;;;;;;;1.20;1.20;;;17.10;65.20;;;;;;5068557;28;44047;-75
2022/12/28 04:34:35;;;;;;;1.27;1.27;;;17.10;65.30;;;;;;5063691;28;43802;-75
2022/12/28 04:37:09;;;;;;;1.13;1.13;;;17.10;65.30;;;;;;5067948;28;44420;-77
2022/12/28 04:39:38;;;;;;;1.33;1.33;;;17.10;65.30;;;;;;5067697;28;43371;-75
2022/12/28 04:42:24;;;;;;;1.37;1.37;;;17.10;65.30;;;;;;5068377;28;43479;-75
2022/12/28 04:44:52;;;;;;;1.50;1.50;;;17.10;65.40;;;;;;5086061;28;43953;-76
2022/12/28 04:47:19;;;;;;;1.43;1.43;;;17.10;65.30;;;;;;5067676;28;44739;-76
2022/12/28 04:49:47;;;;;;;1.40;1.40;;;17.20;64.90;;;;;;5064596;28;43925;-75
2022/12/28 04:52:17;;;;;;;1.40;1.40;;;17.30;64.50;;;;;;5067492;28;43969;-76
2022/12/28 04:54:45;;;;;;;1.30;1.30;;;17.30;64.30;;;;;;5067312;28;45615;-75
2022/12/28 04:57:25;;;;;;;1.30;1.30;;;17.30;64.50;;;;;;5067355;28;44689;-75
2022/12/28 04:59:53;;;;;;;1.57;1.57;;;17.30;64.60;;;;;;5086536;28;43437;-76
2022/12/28 05:02:23;;;;;;;1.20;1.20;;;17.30;64.50;;;;;;5060552;28;44156;-75
2022/12/28 05:04:51;;;;;;;1.30;1.30;;;17.30;64.70;;;;;;5086394;28;43804;-75
2022/12/28 05:07:21;;;;;;;1.20;1.20;;;17.20;64.80;;;;;;5067417;28;44366;-77
2022/12/28 05:09:49;;;;;;;1.20;1.20;;;17.20;64.80;;;;;;5085679;28;43471;-77
2022/12/28 05:12:17;;;;;;;1.40;1.40;;;17.20;65.00;;;;;;5080546;28;43504;-74
2022/12/28 05:14:45;;;;;;;1.20;1.20;;;17.20;65.10;;;;;;5086125;28;43690;-74
2022/12/28 05:17:14;;;;;;;1.30;1.30;;;17.20;65.10;;;;;;5066114;28;44125;-74
2022/12/28 05:19:42;;;;;;;1.20;1.20;;;17.20;65.10;;;;;;5089660;28;43443;-75
2022/12/28 05:22:11;;;;;;;1.30;1.30;;;17.20;65.20;;;;;;5089498;28;44066;-77
2022/12/28 05:24:41;;;;;;;1.30;1.30;;;17.20;65.20;;;;;;5089287;28;43595;-77
2022/12/28 05:27:10;;;;;;;1.20;1.20;;;17.20;65.20;;;;;;5070771;28;43419;-76
2022/12/28 05:29:39;;;;;;;1.30;1.30;;;17.10;65.10;;;;;;5070884;28;43822;-75
2022/12/28 05:32:07;;;;;;;1.40;1.40;;;17.10;65.20;;;;;;5088068;28;43530;-77
2022/12/28 05:34:36;;;;;;;1.20;1.20;;;17.20;65.10;;;;;;5089150;28;44848;-77
2022/12/28 05:37:04;;;;;;;0.93;0.93;;;17.30;64.60;;;;;;5089336;28;43466;-77
2022/12/28 05:39:44;;;;;;;1.13;1.13;;;17.40;64.20;;;;;;5088848;28;43522;-77
2022/12/28 05:42:17;;;;;;;1.23;1.23;;;17.40;64.10;;;;;;5069038;28;43405;-76
2022/12/28 05:44:45;;;;;;;1.30;1.30;;;17.40;64.30;;;;;;5086432;28;43916;-77
2022/12/28 05:47:28;;;;;;;1.10;1.10;;;17.40;64.40;;;;;;5070058;28;44610;-76
2022/12/28 05:56:45;;;;;;;1.20;1.20;;;17.30;64.60;;;;;;5068119;28;44095;-78
2022/12/28 05:59:14;;;;;;;1.00;1.00;;;17.30;64.70;;;;;;5067461;28;43939;-78
2022/12/28 06:01:44;;;;;;;1.20;1.20;;;17.20;64.70;;;;;;5065991;28;43453;-75
2022/12/28 06:04:15;;;;;;;1.00;1.00;;;17.20;64.80;;;;;;5067736;28;43484;-75
2022/12/28 06:06:43;;;;;;;1.30;1.30;;;17.20;64.80;;;;;;5060794;28;45608;-76
2022/12/28 06:09:11;;;;;;;1.07;1.07;;;17.20;64.80;;;;;;5066631;28;44084;-75
2022/12/28 06:11:40;;;;;;;1.20;1.20;;;17.20;64.90;;;;;;5068620;28;43891;-77
2022/12/28 06:14:08;;;;;;;1.00;1.00;;;17.20;64.90;;;;;;5067280;28;43623;-76
2022/12/28 06:16:40;;;;;;;1.10;1.10;;;17.20;65.00;;;;;;5066020;28;43930;-77
2022/12/28 06:19:09;;;;;;;1.10;1.10;;;17.20;65.90;;;;;;5067967;28;43412;-76
2022/12/28 06:21:40;;;;;;;1.13;1.13;;;17.20;64.90;;;;;;5068405;28;44017;-76
2022/12/28 06:24:09;;;;;;;1.13;1.13;;;17.30;64.60;;;;;;5063952;28;43390;-77
2022/12/28 06:26:41;;;;;;;1.20;1.20;;;17.30;64.50;;;;;;5061926;28;43780;-75
2022/12/28 06:29:09;;;;;;;1.00;1.00;;;17.30;64.60;;;;;;5063425;28;44005;-75
2022/12/28 06:31:39;;;;;;;1.40;1.40;;;17.30;64.80;;;;;;5066704;28;43824;-75
2022/12/28 06:34:08;;;;;;;1.20;1.20;;;17.20;64.70;;;;;;5066631;28;43523;-77
2022/12/28 06:36:38;;;;;;;1.10;1.10;;;17.20;64.70;;;;;;5068252;28;43869;-75
2022/12/28 06:39:07;;;;;;;1.10;1.10;;;17.20;64.80;;;;;;5066009;28;44681;-77
2022/12/28 06:41:35;;;;;;;1.10;1.10;;;17.20;64.90;;;;;;5062604;28;43991;-77
2022/12/28 06:44:06;;;;;;;1.00;1.00;;;17.20;64.90;;;;;;5067659;28;43929;-75
2022/12/28 06:46:33;;;;;;;1.23;1.20;;;17.20;65.00;;;;;;5066214;28;45710;-76
2022/12/28 06:49:03;;;;;;;1.63;1.10;;;17.10;65.00;;;;;;5067800;28;43456;-77
2022/12/28 06:51:34;;;;;;;1.27;1.27;;;17.20;65.10;;;;;;5068263;28;43370;-78
2022/12/28 06:54:02;;;;;;;1.00;1.00;;;17.20;64.80;;;;;;5058617;28;43453;-75
2022/12/28 06:56:31;;;;;;;1.10;1.10;;;17.30;64.60;;;;;;5054758;28;43923;-78
2022/12/28 06:58:59;;;;;;;1.00;1.00;;;17.30;64.60;;;;;;5050936;28;43540;-77
2022/12/28 07:01:31;;;;;;;1.17;1.17;;;17.30;64.70;;;;;;5053149;28;43806;-77
2022/12/28 07:04:00;;;;;;;1.30;1.20;;;17.20;64.80;;;;;;5048018;28;44183;-76
2022/12/28 07:06:29;;;;;;;1.10;1.10;;;17.20;64.80;;;;;;5053104;28;43849;-77
2022/12/28 07:09:01;;;;;;;0.90;0.90;;;17.20;64.80;;;;;;5049687;28;44434;-78
2022/12/28 07:11:29;;;;;;;1.10;1.10;;;17.20;64.80;;;;;;5052072;28;43466;-76
2022/12/28 07:13:57;;;;;;;1.10;1.10;;;17.20;64.90;;;;;;5050829;28;43515;-76
2022/12/28 07:16:26;;;;;;;1.27;1.20;;;17.20;65.00;;;;;;5049093;28;45625;-77
2022/12/28 07:18:54;;;;;;;1.00;1.00;;;17.20;65.00;;;;;;5049979;28;43988;-75
2022/12/28 07:21:23;;;;;;;0.90;0.90;;;17.10;65.00;;;;;;5054271;28;43996;-77
2022/12/28 07:23:53;;;;;;;1.10;1.10;;;17.20;65.00;;;;;;5050241;28;43457;-77
2022/12/28 07:26:23;;;;;;;1.93;1.10;;;17.30;64.60;;;;;;5048192;28;45611;-75
2022/12/28 07:28:51;;;;;;;1.23;1.23;;;17.30;64.30;;;;;;5042147;28;43485;-76
2022/12/28 07:31:20;;;;;;;1.00;1.00;;;17.30;64.40;;;;;;5055771;28;43367;-77
2022/12/28 07:33:48;;;;;;;0.93;0.93;;;17.30;64.50;;;;;;5043813;28;43451;-74
2022/12/28 07:36:17;;;;;;;1.03;1.03;;;17.30;64.70;;;;;;5048460;28;45808;-76
2022/12/28 07:38:45;;;;;;;1.00;1.00;;;17.20;64.50;;;;;;5053318;28;45018;-77
2022/12/28 07:41:16;;;;;;;1.00;1.00;;;17.20;64.60;;;;;;5051527;28;43895;-76
2022/12/28 07:43:44;;;;;;;1.23;1.10;;;17.20;64.70;;;;;;5050383;28;43483;-77
2022/12/28 07:46:13;;;;;;;1.00;1.00;;;17.20;64.80;;;;;;5048095;28;43740;-77
2022/12/28 07:48:59;;;;;;;1.40;1.10;;;17.20;64.90;;;;;;5051131;28;43913;-75
2022/12/28 07:51:31;;;;;;;1.00;1.00;;;17.10;64.90;;;;;;5048739;28;43403;-75
2022/12/28 07:53:59;;;;;;;1.10;1.10;;;17.10;64.90;;;;;;5071501;28;43453;-75
2022/12/28 07:56:35;;;;;;;1.00;1.00;;;17.10;64.90;;;;;;5068187;28;45790;-75
2022/12/28 07:59:03;;;;;;;1.10;1.10;;;17.10;65.00;;;;;;5087400;28;43449;-75
2022/12/28 08:01:32;;;;;;;1.57;1.00;;;17.10;65.00;;;;;;5087457;28;43740;-76
2022/12/28 08:04:01;;;;;;;1.00;1.00;;;17.10;65.00;;;;;;5069134;28;43496;-77
2022/12/28 08:06:33;;;;;;;1.20;1.20;;;17.10;65.10;;;;;;5084114;28;45029;-74
2022/12/28 08:12:41;;;;;;;1.13;1.13;;;17.20;64.80;;;;;;5067566;28;43419;-75
2022/12/28 08:15:10;;;;;;;1.10;1.10;;;17.40;64.40;;;;;;5069077;28;43503;-77
2022/12/28 08:17:38;;;;;;;1.10;1.10;;;17.40;64.10;;;;;;5068136;28;45311;-76
2022/12/28 08:20:07;;;;;;;1.17;1.17;;;17.40;64.30;;;;;;5072580;28;45060;-77
2022/12/28 08:22:54;;;;;;;1.00;1.00;;;17.30;64.40;;;;;;5086795;28;43992;-76
2022/12/28 08:25:43;;;;;;;1.00;1.00;;;17.30;64.30;;;;;;5083185;28;43510;-76
2022/12/28 08:28:12;;;;;;;1.23;1.23;;;17.30;64.50;;;;;;5086797;28;43821;-75
2022/12/28 08:30:41;;;;;;;1.20;1.20;;;17.30;64.60;;;;;;5086363;28;43548;-77
2022/12/28 08:33:09;;;;;;;1.00;1.00;;;17.20;64.60;;;;;;5086881;28;43520;-75
2022/12/28 08:35:38;;;;;;;1.00;1.00;;;17.20;64.80;;;;;;5083298;28;43518;-75
2022/12/28 08:38:06;;;;;;;0.90;0.90;;;17.20;64.90;;;;;;5085359;28;43842;-74
2022/12/28 08:40:34;;;;;;;1.17;1.17;;;17.20;64.80;;;;;;5067930;28;44954;-73
2022/12/28 08:43:02;;;;;;;1.20;1.20;;;17.20;65.00;;;;;;5079368;28;43431;-77
2022/12/28 08:45:31;;;;;;;1.10;1.10;;;17.20;65.00;;;;;;5068469;28;43525;-74
2022/12/28 08:47:59;;;;;;;1.00;1.00;;;17.10;65.00;;;;;;5084466;28;43682;-77
2022/12/28 08:50:27;;;;;;;1.10;1.10;;;17.10;65.00;;;;;;5086604;28;43387;-76
2022/12/28 08:52:58;;;;;;;1.07;1.07;;;17.10;65.10;;;;;;5067560;28;43458;-76
2022/12/28 08:55:26;;;;;;;1.20;1.20;;;17.10;65.10;;;;;;5087175;28;43869;-74
2022/12/28 08:57:55;;;;;;;1.10;1.10;;;17.20;64.90;;;;;;5086182;28;44079;-76
2022/12/28 09:00:23;;;;;;;1.17;1.17;;;17.30;64.50;;;;;;5086682;28;43427;-76
2022/12/28 09:03:18;;;;;;;1.20;1.20;;;17.30;64.20;;;;;;5067675;28;43814;-77
2022/12/28 09:06:12;;;;;;;1.10;1.10;;;17.30;64.50;;;;;;5084495;28;43463;-77
2022/12/28 09:08:41;;;;;;;1.20;1.20;;;17.30;64.60;;;;;;5086252;28;43992;-78
2022/12/28 09:11:29;;;;;;;1.20;1.20;;;17.20;64.60;;;;;;5067825;28;44820;-76
2022/12/28 09:14:20;;;;;;;1.17;1.17;;;17.20;64.60;;;;;;5086119;28;43466;-76
2022/12/28 09:16:58;;;;;;;1.00;1.00;;;17.20;64.80;;;;;;5073602;28;43466;-74
2022/12/28 09:19:27;;;;;;;1.17;1.17;;;17.20;64.90;;;;;;5080387;28;43748;-77
2022/12/28 09:21:57;;;;;;;1.20;1.20;;;17.10;64.80;;;;;;5067474;28;44308;-74
2022/12/28 09:24:25;;;;;;;1.20;1.20;;;17.10;65.00;;;;;;5067776;28;43502;-75
2022/12/28 09:26:54;;;;;;;1.17;1.17;;;17.10;65.00;;;;;;5086907;28;43458;-73
2022/12/28 09:29:22;;;;;;;1.00;1.00;;;17.10;65.00;;;;;;5086104;28;43773;-75
2022/12/28 09:32:00;;;;;;;1.03;1.03;;;17.10;65.10;;;;;;5085450;28;43529;-75
2022/12/28 09:35:07;;;;;;;1.10;1.10;;;17.10;65.10;;;;;;5067573;28;43459;-76
2022/12/28 09:45:33;;;;;;;1.27;1.27;;;17.10;65.00;;;;;;5049875;28;43529;-74
2022/12/28 09:48:27;;;;;;;1.07;1.07;;;17.20;64.50;;;;;;5074737;28;44091;-75
2022/12/28 09:50:56;;;;;;;1.00;1.00;;;17.20;64.60;;;;;;5086439;28;43797;-75
2022/12/28 09:53:28;;;;;;;1.10;1.10;;;17.20;65.10;;;;;;5085574;28;43947;-76
2022/12/28 09:56:01;;;;;;;1.20;1.20;;;17.20;64.70;;;;;;5067228;28;44705;-76
2022/12/28 09:58:29;;;;;;;1.20;1.20;;;17.20;64.70;;;;;;5084514;28;43433;-76
2022/12/28 10:01:09;;;;;;;1.03;1.03;;;17.20;64.80;;;;;;5067037;28;43535;-76
2022/12/28 10:03:38;;;;;;;1.17;1.17;;;17.20;64.80;;;;;;5066832;28;45308;-76
2022/12/28 10:06:12;;;;;;;1.17;1.17;;;17.10;64.90;;;;;;5088500;28;43448;-76
2022/12/28 10:08:42;;;;;;;1.10;1.10;;;17.10;64.90;;;;;;5070722;28;43885;-77
2022/12/28 10:11:12;;;;;;;1.23;1.23;;;17.10;65.00;;;;;;5070849;28;43747;-76
2022/12/28 10:17:08;;;;;;;1.70;1.70;;;17.10;65.00;;;;;;5068123;28;44738;-76
2022/12/28 10:19:46;;;;;;;1.30;1.30;;;17.10;65.10;;;;;;5088047;28;43461;-76
2022/12/28 10:22:17;;;;;;;1.27;1.27;;;17.10;65.10;;;;;;5089170;28;43605;-76
2022/12/28 10:24:46;;;;;;;2.20;1.50;;;17.10;65.00;;;;;;5088515;28;44445;-75
2022/12/28 10:27:19;;;;;;;2.93;1.47;;;17.10;65.30;;;;;;5087744;28;43422;-77
2022/12/28 10:29:47;;;;;;;1.83;1.47;;;17.10;65.30;;;;;;5088271;28;43755;-75
2022/12/28 10:32:15;;;;;;;1.77;1.60;;;17.20;65.00;;;;;;5088745;28;43904;-74
2022/12/28 10:34:54;;;;;;;3.23;1.40;;;17.30;64.60;;;;;;5088518;28;43694;-77
2022/12/28 10:37:24;;;;;;;4.20;1.60;;;17.40;64.30;;;;;;5070035;28;44817;-77
2022/12/28 10:39:53;;;;;;;1.43;1.33;;;17.40;64.30;;;;;;5083455;28;43447;-77
2022/12/28 10:42:40;;;;;;;1.50;1.50;;;17.30;64.40;;;;;;5066327;28;43550;-77
2022/12/28 10:45:35;;;;;;;1.40;1.30;;;17.30;64.60;;;;;;5084896;28;44187;-76
2022/12/28 10:48:41;;;;;;;2.10;1.70;;;17.30;64.50;;;;;;5087819;28;43487;-76
2022/12/28 10:51:18;;;;;;;1.60;1.50;;;17.30;64.60;;;;;;5069801;28;43439;-76
2022/12/28 10:53:48;;;;;;;1.93;1.53;;;17.30;64.80;;;;;;5088527;28;43448;-76
2022/12/28 10:56:24;;;;;;;2.67;1.70;;;17.20;64.80;;;;;;5086776;27;43627;-73
2022/12/28 10:58:52;;;;;;;1.57;1.30;;;17.20;65.00;;;;;;5085971;28;43540;-77
2022/12/28 11:01:24;;;;;;;1.50;1.50;;;17.20;65.00;;;;;;5088281;28;44064;-78
2022/12/28 11:04:01;;;;;;;1.40;1.40;;;17.20;64.90;;;;;;5088382;28;43515;-74
2022/12/28 11:06:30;;;;;;;1.33;1.33;;;17.20;65.00;;;;;;5088159;28;43690;-75
2022/12/28 11:09:06;;;;;;;1.73;1.30;;;17.10;65.00;;;;;;5065339;28;44761;-76
2022/12/28 11:11:34;;;;;;;1.53;1.53;;;17.10;65.10;;;;;;5063376;28;43441;-75
2022/12/28 11:17:13;;;;;;;1.50;1.47;;;17.10;65.40;;;;;;5085384;28;44110;-77
2022/12/28 11:20:08;;;;;;;1.80;1.70;;;17.20;65.40;;;;;;5087455;27;43586;-76
2022/12/28 11:23:51;;;;;;;2.20;1.60;;;17.30;64.90;;;;;;5085795;27;43499;-77
2022/12/28 11:27:18;;;;;;;1.60;1.60;;;17.30;64.60;;;;;;5064929;28;43468;-76
2022/12/28 11:31:32;;;;;;;1.40;1.40;;;17.30;64.60;;;;;;5067878;28;43785;-75
2022/12/28 11:50:33;;;;;;;1.67;1.57;;;17.20;65.40;;;;;;5068510;28;44423;-77
2022/12/28 12:21:02;;;;;;;1.50;1.50;;;17.30;65.20;;;;;;5081278;28;43475;-76
2022/12/28 12:24:17;;;;;;;1.40;1.40;;;17.30;65.10;;;;;;5085931;28;43482;-77
2022/12/28 12:27:13;;;;;;;1.57;1.57;;;17.30;65.40;;;;;;5065222;28;43460;-75
2022/12/28 12:29:43;;;;;;;1.57;1.57;;;17.20;65.40;;;;;;5087348;28;44063;-77
2022/12/28 12:32:15;;;;;;;1.40;1.40;;;17.20;65.50;;;;;;5067845;28;44467;-77
2022/12/28 12:34:44;;;;;;;1.67;1.67;;;17.10;65.60;;;;;;5085335;28;43402;-76
2022/12/28 12:37:58;;;;;;;1.80;1.70;;;17.10;65.40;;;;;;5068343;28;43611;-75
2022/12/28 12:41:01;;;;;;;1.57;1.57;;;17.20;65.70;;;;;;5066816;28;45689;-76
2022/12/28 12:44:04;;;;;;;1.60;1.60;;;17.20;65.70;;;;;;5067701;28;44455;-76
2022/12/28 12:47:23;;;;;;;1.50;1.50;;;17.20;65.70;;;;;;5064620;28;43440;-78
2022/12/28 12:50:28;;;;;;;1.60;1.60;;;17.10;65.80;;;;;;5042175;28;43985;-75
2022/12/28 12:53:04;;;;;;;1.53;1.53;;;17.20;65.80;;;;;;5066214;28;45982;-74
2022/12/28 12:55:46;;;;;;;2.00;1.90;;;17.30;65.50;;;;;;5085903;28;43633;-77
2022/12/28 12:58:19;;;;;;;1.43;1.43;;;17.40;65.10;;;;;;5084730;28;43378;-77
2022/12/28 13:00:55;;;;;;;1.30;1.30;;;17.40;65.00;;;;;;5067696;28;43483;-75
2022/12/28 13:03:29;;;;;;;1.50;1.50;;;17.40;65.10;;;;;;5067734;28;45570;-76
2022/12/28 13:05:57;;;;;;;1.50;1.50;;;17.30;65.30;;;;;;5081888;28;43398;-75
2022/12/28 13:08:28;;;;;;;1.50;1.50;;;17.30;65.10;;;;;;5086448;28;43583;-76
2022/12/28 13:10:56;;;;;;;1.40;1.40;;;17.30;65.10;;;;;;5067989;28;44045;-71
2022/12/28 13:13:30;;;;;;;1.60;1.60;;;17.30;65.40;;;;;;5085737;28;43682;-76
2022/12/28 13:16:01;;;;;;;1.50;1.50;;;17.30;65.50;;;;;;5087500;27;43457;-76
2022/12/28 13:18:29;;;;;;;1.57;1.57;;;17.20;65.50;;;;;;5068822;28;43984;-75
2022/12/28 13:21:19;;;;;;;1.60;1.60;;;17.20;65.70;;;;;;5067734;28;44027;-76
2022/12/28 13:23:49;;;;;;;1.50;1.40;;;17.20;65.40;;;;;;5085113;28;43878;-76
2022/12/28 13:26:17;;;;;;;1.47;1.47;;;17.20;65.60;;;;;;5085351;28;44008;-74
2022/12/28 13:28:48;;;;;;;1.60;1.60;;;17.20;65.70;;;;;;5085825;28;43354;-76
2022/12/28 13:31:18;;;;;;;1.50;1.50;;;17.20;65.80;;;;;;5085767;28;43545;-77
2022/12/28 13:33:54;;;;;;;1.40;1.30;;;17.20;65.80;;;;;;5085347;28;43844;-75
2022/12/28 13:36:22;;;;;;;1.40;1.40;;;17.10;66.00;;;;;;5067041;28;43469;-77
2022/12/28 13:39:11;;;;;;;1.27;1.27;;;17.20;65.90;;;;;;5087567;27;43461;-75
2022/12/28 13:41:45;;;;;;;1.50;1.50;;;17.30;65.50;;;;;;5089532;27;43458;-74
2022/12/28 13:44:47;;;;;;;1.60;1.60;;;17.40;65.30;;;;;;5088243;28;44003;-76
2022/12/28 13:47:23;;;;;;;1.40;1.40;;;17.40;65.20;;;;;;5069171;28;44370;-75
2022/12/28 13:49:54;;;;;;;1.40;1.40;;;17.40;65.40;;;;;;5089627;27;44014;-75
2022/12/28 13:52:24;;;;;;;1.40;1.40;;;17.30;65.50;;;;;;5089478;27;43539;-76
2022/12/28 13:54:55;;;;;;;1.50;1.50;;;17.30;65.50;;;;;;5069884;28;45554;-77
2022/12/28 13:57:35;;;;;;;1.43;1.43;;;17.20;65.50;;;;;;5070007;28;44738;-76
2022/12/28 14:00:16;;;;;;;1.50;1.50;;;17.20;65.80;;;;;;5088588;27;43469;-76
2022/12/28 14:02:44;;;;;;;1.53;1.53;;;17.20;65.90;;;;;;5088746;28;43368;-76
2022/12/28 14:05:16;;;;;;;1.40;1.40;;;17.10;65.90;;;;;;5088265;27;43946;-75
2022/12/28 14:07:44;;;;;;;1.30;1.30;;;17.20;66.10;;;;;;5070060;28;44350;-76
2022/12/28 14:10:13;;;;;;;1.50;1.50;;;17.20;65.90;;;;;;5088328;27;43518;-75
2022/12/28 14:12:42;;;;;;;1.30;1.30;;;17.40;65.60;;;;;;5089128;28;43907;-75
2022/12/28 14:15:10;;;;;;;1.50;1.50;;;17.50;65.30;;;;;;5085259;27;43850;-75
2022/12/28 14:17:42;;;;;;;1.30;1.30;;;17.70;65.00;;;;;;5069049;28;44544;-77
2022/12/28 14:20:11;;;;;;;1.47;1.47;;;17.80;64.50;;;;;;5088622;27;43904;-75
2022/12/28 14:22:40;;;;;;;1.23;1.23;;;18.00;64.00;;;;;;5084893;27;43450;-75
2022/12/28 14:25:09;;;;;;;1.37;1.37;;;18.10;63.60;;;;;;5069664;28;45296;-76
2022/12/28 14:27:42;;;;;;;1.37;1.37;;;18.20;63.20;;;;;;5087699;28;43522;-76
2022/12/28 14:30:21;;;;;;;1.40;1.40;;;18.30;62.90;;;;;;5085643;28;43752;-77
2022/12/28 14:32:49;;;;;;;1.57;1.57;;;18.40;62.70;;;;;;5088080;27;43415;-76
2022/12/28 14:35:18;;;;;;;1.10;1.10;;;18.50;62.40;;;;;;5069365;28;45956;-74
2022/12/28 14:37:49;;;;;;;1.30;1.30;;;18.40;62.50;;;;;;5088209;28;43420;-77
2022/12/28 14:40:24;;;;;;;1.40;1.40;;;18.30;62.60;;;;;;5081842;28;43430;-77
2022/12/28 14:42:53;;;;;;;1.20;1.20;;;18.20;62.90;;;;;;5082410;28;43483;-74
2022/12/28 14:45:23;;;;;;;1.30;1.30;;;18.00;63.80;;;;;;5088722;28;43693;-75
2022/12/28 14:47:54;;;;;;;1.30;1.30;;;17.90;64.00;;;;;;5081774;28;43486;-73
2022/12/28 14:50:24;;;;;;;1.07;1.07;;;17.90;64.10;;;;;;5069504;28;43411;-75
2022/12/28 14:53:01;;;;;;;1.00;1.00;;;17.80;64.10;;;;;;5088943;28;43404;-75
2022/12/28 14:55:31;;;;;;;1.33;1.33;;;17.70;65.00;;;;;;5087159;28;43895;-77
2022/12/28 14:58:02;;;;;;;1.60;1.50;;;17.60;65.10;;;;;;5088022;28;43443;-77
2022/12/28 15:00:31;;;;;;;1.33;1.33;;;17.60;64.60;;;;;;5088063;28;43403;-76